createdAt,value
2023-03-23T00:00:57.000Z,0
2023-03-23T00:02:14.168Z,0
2023-03-23T00:03:30.448Z,0
2023-03-23T00:04:45.000Z,0
2023-03-23T00:06:02.053Z,0
2023-03-23T00:07:18.348Z,0
2023-03-23T00:08:34.629Z,0
2023-03-23T00:09:50.000Z,0
2023-03-23T00:11:07.216Z,0
2023-03-23T00:12:23.514Z,0
2023-03-23T00:13:39.000Z,0
2023-03-23T00:14:56.000Z,0
2023-03-23T00:16:12.391Z,0
2023-03-23T00:17:28.000Z,0
2023-03-23T00:18:44.977Z,0
2023-03-23T00:20:01.285Z,0
2023-03-23T00:21:16.590Z,0
2023-03-23T00:22:32.000Z,0
2023-03-23T00:23:49.175Z,0
2023-03-23T00:25:05.000Z,0
2023-03-23T00:26:21.756Z,0
2023-03-23T00:27:38.045Z,0
2023-03-23T00:28:54.343Z,0
2023-03-23T00:30:10.643Z,0
2023-03-23T00:31:26.939Z,0
2023-03-23T00:32:43.000Z,0
2023-03-23T00:33:59.522Z,0
2023-03-23T00:35:15.000Z,0
2023-03-23T00:36:32.111Z,0
2023-03-23T00:37:47.000Z,0
2023-03-23T00:39:03.000Z,0
2023-03-23T00:40:20.005Z,0
2023-03-23T00:41:36.302Z,0
2023-03-23T00:42:52.579Z,0
2023-03-23T00:44:08.884Z,0
2023-03-23T00:45:25.170Z,0
2023-03-23T00:46:41.000Z,0
2023-03-23T00:47:57.000Z,0
2023-03-23T00:49:14.070Z,0
2023-03-23T00:50:30.347Z,0
2023-03-23T00:51:46.000Z,0
2023-03-23T00:53:02.950Z,0
2023-03-23T00:54:18.255Z,0
2023-03-23T00:55:34.000Z,0
2023-03-23T00:56:50.832Z,0
2023-03-23T00:58:07.000Z,0
2023-03-23T00:59:23.428Z,0
2023-03-23T01:00:39.000Z,0
2023-03-23T01:01:56.009Z,0
2023-03-23T01:03:12.296Z,0
2023-03-23T01:04:28.600Z,0
2023-03-23T01:05:44.896Z,0
2023-03-23T01:07:01.179Z,0
2023-03-23T01:08:17.000Z,0
2023-03-23T01:09:33.761Z,0
2023-03-23T01:10:49.000Z,0
2023-03-23T01:12:05.370Z,0
2023-03-23T01:13:21.661Z,0
2023-03-23T01:14:37.956Z,0
2023-03-23T01:15:54.000Z,0
2023-03-23T01:17:10.000Z,0
2023-03-23T01:18:26.839Z,0
2023-03-23T01:19:43.119Z,0
2023-03-23T01:20:59.000Z,0
2023-03-23T01:22:15.717Z,0
2023-03-23T01:23:32.005Z,0
2023-03-23T01:24:48.000Z,0
2023-03-23T01:26:04.000Z,0
2023-03-23T01:27:19.904Z,0
2023-03-23T01:28:36.000Z,0
2023-03-23T01:29:52.488Z,0
2023-03-23T01:31:08.777Z,0
2023-03-23T01:32:25.074Z,0
2023-03-23T01:33:41.374Z,0
2023-03-23T01:34:57.666Z,0
2023-03-23T01:36:13.000Z,0
2023-03-23T01:37:30.255Z,0
2023-03-23T01:38:46.000Z,0
2023-03-23T01:40:02.846Z,0
2023-03-23T01:41:19.000Z,0
2023-03-23T01:42:35.415Z,0
2023-03-23T01:43:50.732Z,0
2023-03-23T01:45:07.021Z,0
2023-03-23T01:46:23.000Z,0
2023-03-23T01:47:39.000Z,0
2023-03-23T01:48:55.000Z,0
2023-03-23T01:50:12.210Z,0
2023-03-23T01:51:28.000Z,0
2023-03-23T01:52:44.787Z,0
2023-03-23T01:54:01.069Z,0
2023-03-23T01:55:17.374Z,0
2023-03-23T01:56:33.658Z,0
2023-03-23T01:57:49.951Z,0
2023-03-23T01:59:06.000Z,0
2023-03-23T02:00:21.552Z,0
2023-03-23T02:01:37.000Z,0
2023-03-23T02:02:54.150Z,0
2023-03-23T02:04:10.000Z,0
2023-03-23T02:05:26.731Z,0
2023-03-23T02:06:43.033Z,0
2023-03-23T02:07:59.311Z,0
2023-03-23T02:09:15.000Z,0
2023-03-23T02:10:31.898Z,0
2023-03-23T02:11:48.203Z,0
2023-03-23T02:13:04.000Z,0
2023-03-23T02:14:20.785Z,0
2023-03-23T02:15:37.081Z,0
2023-03-23T02:16:52.386Z,0
2023-03-23T02:18:08.678Z,0
2023-03-23T02:19:24.975Z,0
2023-03-23T02:20:41.268Z,0
2023-03-23T02:21:57.000Z,0
2023-03-23T02:23:13.856Z,0
2023-03-23T02:24:29.000Z,0
2023-03-23T02:25:45.471Z,0
2023-03-23T02:27:01.000Z,0
2023-03-23T02:28:18.052Z,0
2023-03-23T02:29:34.345Z,0
2023-03-23T02:30:50.643Z,0
2023-03-23T02:32:06.000Z,0
2023-03-23T02:33:23.224Z,0
2023-03-23T02:34:39.516Z,0
2023-03-23T02:35:55.812Z,0
2023-03-23T02:37:12.000Z,0
2023-03-23T02:38:28.410Z,0
2023-03-23T02:39:44.700Z,0
2023-03-23T02:41:00.001Z,0
2023-03-23T02:42:16.303Z,0
2023-03-23T02:43:32.583Z,0
2023-03-23T02:44:48.000Z,0
2023-03-23T02:46:05.167Z,0
2023-03-23T02:47:21.000Z,0
2023-03-23T02:48:37.758Z,0
2023-03-23T02:49:54.057Z,0
2023-03-23T02:51:10.337Z,0
2023-03-23T02:52:26.000Z,0
2023-03-23T02:53:42.933Z,0
2023-03-23T02:54:59.236Z,0
2023-03-23T02:56:15.511Z,0
2023-03-23T02:57:30.838Z,0
2023-03-23T02:58:47.117Z,0
2023-03-23T03:00:03.412Z,0
2023-03-23T03:01:19.714Z,0
2023-03-23T03:02:36.000Z,0
2023-03-23T03:03:52.300Z,0
2023-03-23T03:05:08.000Z,0
2023-03-23T03:06:24.882Z,0
2023-03-23T03:07:41.167Z,0
2023-03-23T03:08:57.463Z,0
2023-03-23T03:10:13.760Z,0
2023-03-23T03:11:30.048Z,0
2023-03-23T03:12:46.000Z,0
2023-03-23T03:14:01.659Z,0
2023-03-23T03:15:17.000Z,0
2023-03-23T03:16:34.254Z,0
2023-03-23T03:17:50.551Z,0
2023-03-23T03:19:06.825Z,0
2023-03-23T03:20:23.127Z,0
2023-03-23T03:21:39.417Z,0
2023-03-23T03:22:55.710Z,0
2023-03-23T03:24:11.998Z,0
2023-03-23T03:25:28.000Z,0
2023-03-23T03:26:44.000Z,0
2023-03-23T03:28:00.000Z,0
2023-03-23T03:29:17.184Z,0
2023-03-23T03:30:32.486Z,0
2023-03-23T03:31:48.779Z,0
2023-03-23T03:33:05.080Z,0
2023-03-23T03:34:21.361Z,0
2023-03-23T03:35:37.000Z,0
2023-03-23T03:36:53.959Z,0
2023-03-23T03:38:10.252Z,0
2023-03-23T03:39:26.538Z,0
2023-03-23T03:40:42.000Z,0
2023-03-23T03:41:59.123Z,0
2023-03-23T03:43:15.417Z,0
2023-03-23T03:44:31.724Z,0
2023-03-23T03:45:48.000Z,0
2023-03-23T03:47:03.322Z,0
2023-03-23T03:48:19.000Z,0
2023-03-23T03:49:35.902Z,0
2023-03-23T03:50:52.200Z,0
2023-03-23T03:52:08.493Z,0
2023-03-23T03:53:24.787Z,0
2023-03-23T03:54:41.076Z,0
2023-03-23T03:55:57.000Z,0
2023-03-23T03:57:13.000Z,0
2023-03-23T03:58:29.000Z,0
2023-03-23T03:59:46.258Z,0
2023-03-23T04:01:02.539Z,0
2023-03-23T04:02:18.835Z,0
2023-03-23T04:03:34.147Z,0
2023-03-23T04:04:50.441Z,0
2023-03-23T04:06:06.730Z,0
2023-03-23T04:07:23.040Z,0
2023-03-23T04:08:39.000Z,0
2023-03-23T04:09:55.614Z,0
2023-03-23T04:11:11.000Z,0
2023-03-23T04:12:28.000Z,0
2023-03-23T04:13:44.000Z,0
2023-03-23T04:15:00.791Z,0
2023-03-23T04:16:17.079Z,0
2023-03-23T04:17:33.371Z,0
2023-03-23T04:18:49.000Z,0
2023-03-23T04:20:04.985Z,0
2023-03-23T04:21:21.275Z,0
2023-03-23T04:22:37.000Z,0
2023-03-23T04:23:53.000Z,0
2023-03-23T04:25:10.143Z,0
2023-03-23T04:26:26.453Z,0
2023-03-23T04:27:42.744Z,0
2023-03-23T04:28:59.030Z,0
2023-03-23T04:30:15.326Z,0
2023-03-23T04:31:31.615Z,0
2023-03-23T04:32:47.908Z,0
2023-03-23T04:34:04.000Z,0
2023-03-23T04:35:20.488Z,0
2023-03-23T04:36:35.801Z,0
2023-03-23T04:37:52.098Z,0
2023-03-23T04:39:08.398Z,0
2023-03-23T04:40:24.688Z,0
2023-03-23T04:41:40.972Z,0
2023-03-23T04:42:57.212Z,1
2023-03-23T04:44:13.000Z,1
2023-03-23T04:45:29.705Z,1
2023-03-23T04:46:45.000Z,1
2023-03-23T04:48:02.185Z,2
2023-03-23T04:49:18.429Z,2
2023-03-23T04:50:34.666Z,3
2023-03-23T04:51:50.902Z,2
2023-03-23T04:53:06.152Z,3
2023-03-23T04:54:22.406Z,4
2023-03-23T04:55:38.636Z,5
2023-03-23T04:56:54.000Z,8
2023-03-23T04:58:11.139Z,12
2023-03-23T04:59:27.000Z,12
2023-03-23T05:00:43.589Z,15
2023-03-23T05:01:59.838Z,21
2023-03-23T05:03:16.071Z,27
2023-03-23T05:04:32.000Z,29
2023-03-23T05:05:48.552Z,26
2023-03-23T05:07:04.000Z,31
2023-03-23T05:08:21.000Z,33
2023-03-23T05:09:36.000Z,34
2023-03-23T05:10:52.524Z,37
2023-03-23T05:12:08.000Z,37
2023-03-23T05:13:25.014Z,36
2023-03-23T05:14:41.256Z,39
2023-03-23T05:15:57.482Z,38
2023-03-23T05:17:13.000Z,39
2023-03-23T05:18:29.957Z,39
2023-03-23T05:19:46.195Z,38
2023-03-23T05:21:02.440Z,43
2023-03-23T05:22:18.677Z,46
2023-03-23T05:23:34.927Z,49
2023-03-23T05:24:51.166Z,60
2023-03-23T05:26:06.416Z,64
2023-03-23T05:27:22.663Z,81
2023-03-23T05:28:38.900Z,102
2023-03-23T05:29:55.142Z,103
2023-03-23T05:31:11.366Z,113
2023-03-23T05:32:27.000Z,111
2023-03-23T05:33:43.851Z,117
2023-03-23T05:35:00.084Z,124
2023-03-23T05:36:16.000Z,122
2023-03-23T05:37:32.000Z,128
2023-03-23T05:38:48.810Z,141
2023-03-23T05:40:05.043Z,153
2023-03-23T05:41:21.288Z,139
2023-03-23T05:42:36.000Z,138
2023-03-23T05:43:52.000Z,151
2023-03-23T05:45:09.000Z,206
2023-03-23T05:46:25.258Z,290
2023-03-23T05:47:41.000Z,318
2023-03-23T05:48:57.743Z,301
2023-03-23T05:50:13.989Z,328
2023-03-23T05:51:30.225Z,370
2023-03-23T05:52:46.000Z,389
2023-03-23T05:54:02.702Z,371
2023-03-23T05:55:18.000Z,330
2023-03-23T05:56:35.175Z,290
2023-03-23T05:57:51.000Z,286
2023-03-23T05:59:06.680Z,331
2023-03-23T06:00:22.910Z,424
2023-03-23T06:01:39.154Z,445
2023-03-23T06:02:55.384Z,405
2023-03-23T06:04:11.630Z,369
2023-03-23T06:05:27.000Z,322
2023-03-23T06:06:44.103Z,259
2023-03-23T06:08:00.000Z,267
2023-03-23T06:09:16.000Z,304
2023-03-23T06:10:32.000Z,279
2023-03-23T06:11:49.000Z,248
2023-03-23T06:13:05.314Z,222
2023-03-23T06:14:21.540Z,177
2023-03-23T06:15:36.801Z,155
2023-03-23T06:16:53.053Z,151
2023-03-23T06:18:09.000Z,141
2023-03-23T06:19:25.000Z,162
2023-03-23T06:20:41.000Z,200
2023-03-23T06:21:58.000Z,268
2023-03-23T06:23:14.000Z,340
2023-03-23T06:24:30.471Z,386
2023-03-23T06:25:46.708Z,393
2023-03-23T06:27:02.955Z,448
2023-03-23T06:28:19.000Z,551
2023-03-23T06:29:35.000Z,706
2023-03-23T06:30:51.000Z,782
2023-03-23T06:32:06.000Z,687
2023-03-23T06:33:23.000Z,639
2023-03-23T06:34:39.399Z,570
2023-03-23T06:35:55.000Z,571
2023-03-23T06:37:11.891Z,758
2023-03-23T06:38:28.119Z,869
2023-03-23T06:39:43.386Z,965
2023-03-23T06:40:59.000Z,964
2023-03-23T06:42:15.000Z,880
2023-03-23T06:43:32.000Z,755
2023-03-23T06:44:48.000Z,655
2023-03-23T06:46:04.587Z,656
2023-03-23T06:47:20.000Z,653
2023-03-23T06:48:37.000Z,619
2023-03-23T06:49:53.307Z,624
2023-03-23T06:51:09.551Z,644
2023-03-23T06:52:25.781Z,638
2023-03-23T06:53:42.000Z,656
2023-03-23T06:54:58.000Z,569
2023-03-23T06:56:13.000Z,521
2023-03-23T06:57:29.758Z,566
2023-03-23T06:58:46.000Z,618
2023-03-23T07:00:02.237Z,677
2023-03-23T07:01:18.000Z,674
2023-03-23T07:02:34.707Z,649
2023-03-23T07:03:50.943Z,647
2023-03-23T07:05:07.192Z,731
2023-03-23T07:06:23.000Z,727
2023-03-23T07:07:39.000Z,789
2023-03-23T07:08:55.000Z,834
2023-03-23T07:10:12.142Z,982
2023-03-23T07:11:28.000Z,1074
2023-03-23T07:12:43.648Z,1105
2023-03-23T07:13:59.878Z,1189
2023-03-23T07:15:16.124Z,1201
2023-03-23T07:16:32.000Z,1185
2023-03-23T07:17:48.600Z,1208
2023-03-23T07:19:04.000Z,1148
2023-03-23T07:20:21.000Z,1050
2023-03-23T07:21:37.000Z,1042
2023-03-23T07:22:53.000Z,1086
2023-03-23T07:24:09.795Z,1097
2023-03-23T07:25:26.032Z,1069
2023-03-23T07:26:42.270Z,1044
2023-03-23T07:27:58.000Z,1001
2023-03-23T07:29:13.000Z,996
2023-03-23T07:30:30.000Z,1037
2023-03-23T07:31:46.000Z,1041
2023-03-23T07:33:02.000Z,1032
2023-03-23T07:34:18.000Z,1078
2023-03-23T07:35:34.000Z,1126
2023-03-23T07:36:51.000Z,1330
2023-03-23T07:38:07.446Z,1319
2023-03-23T07:39:23.000Z,1262
2023-03-23T07:40:39.000Z,1375
2023-03-23T07:41:56.000Z,1450
2023-03-23T07:43:12.000Z,1597
2023-03-23T07:44:28.000Z,1537
2023-03-23T07:45:43.000Z,1617
2023-03-23T07:47:00.000Z,1763
2023-03-23T07:48:16.379Z,1690
2023-03-23T07:49:32.607Z,1665
2023-03-23T07:50:48.864Z,1870
2023-03-23T07:52:05.000Z,1791
2023-03-23T07:53:21.000Z,2014
2023-03-23T07:54:37.000Z,2252
2023-03-23T07:55:53.804Z,1866
2023-03-23T07:57:10.000Z,1676
2023-03-23T07:58:26.295Z,1596
2023-03-23T07:59:42.522Z,1524
2023-03-23T08:00:58.000Z,1553
2023-03-23T08:02:14.000Z,1402
2023-03-23T08:03:30.259Z,1145
2023-03-23T08:04:46.000Z,1078
2023-03-23T08:06:02.000Z,1166
2023-03-23T08:07:18.978Z,1164
2023-03-23T08:08:35.220Z,1242
2023-03-23T08:09:51.462Z,1502
2023-03-23T08:11:07.698Z,1701
2023-03-23T08:12:23.000Z,1707
2023-03-23T08:13:40.177Z,1884
2023-03-23T08:14:56.000Z,2044
2023-03-23T08:16:12.000Z,2094
2023-03-23T08:17:28.000Z,2279
2023-03-23T08:18:44.145Z,2590
2023-03-23T08:20:00.000Z,2512
2023-03-23T08:21:16.631Z,2346
2023-03-23T08:22:32.864Z,2215
2023-03-23T08:23:49.000Z,2145
2023-03-23T08:25:05.000Z,2247
2023-03-23T08:26:21.000Z,2241
2023-03-23T08:27:37.000Z,2253
2023-03-23T08:28:54.081Z,2290
2023-03-23T08:30:10.000Z,2273
2023-03-23T08:31:26.000Z,2215
2023-03-23T08:32:42.779Z,2084
2023-03-23T08:33:59.023Z,1936
2023-03-23T08:35:14.278Z,1900
2023-03-23T08:36:30.000Z,1889
2023-03-23T08:37:46.000Z,1885
2023-03-23T08:39:03.000Z,1938
2023-03-23T08:40:19.000Z,2080
2023-03-23T08:41:35.490Z,2230
2023-03-23T08:42:51.000Z,2341
2023-03-23T08:44:07.959Z,2441
2023-03-23T08:45:24.197Z,2572
2023-03-23T08:46:40.445Z,2690
2023-03-23T08:47:56.000Z,2767
2023-03-23T08:49:12.000Z,2733
2023-03-23T08:50:29.155Z,2659
2023-03-23T08:51:44.000Z,2606
2023-03-23T08:53:00.659Z,2574
2023-03-23T08:54:16.000Z,2683
2023-03-23T08:55:33.149Z,2933
2023-03-23T08:56:49.372Z,3310
2023-03-23T08:58:05.000Z,3786
2023-03-23T08:59:21.847Z,4271
2023-03-23T09:00:38.000Z,4616
2023-03-23T09:01:54.000Z,4749
2023-03-23T09:03:10.000Z,4529
2023-03-23T09:04:26.818Z,4296
2023-03-23T09:05:43.064Z,4295
2023-03-23T09:06:59.296Z,4348
2023-03-23T09:08:14.551Z,4378
2023-03-23T09:09:30.000Z,4279
2023-03-23T09:10:47.000Z,4231
2023-03-23T09:12:03.266Z,4202
2023-03-23T09:13:19.000Z,4206
2023-03-23T09:14:35.736Z,4227
2023-03-23T09:15:52.000Z,4075
2023-03-23T09:17:08.000Z,3964
2023-03-23T09:18:24.458Z,3808
2023-03-23T09:19:40.688Z,3658
2023-03-23T09:20:56.928Z,4023
2023-03-23T09:22:13.166Z,4510
2023-03-23T09:23:29.000Z,5109
2023-03-23T09:24:44.000Z,5222
2023-03-23T09:26:00.000Z,5142
2023-03-23T09:27:17.000Z,4672
2023-03-23T09:28:33.000Z,4603
2023-03-23T09:29:49.632Z,4599
2023-03-23T09:31:05.875Z,4551
2023-03-23T09:32:22.091Z,4878
2023-03-23T09:33:38.000Z,4944
2023-03-23T09:34:54.587Z,4725
2023-03-23T09:36:10.000Z,4701
2023-03-23T09:37:27.058Z,4636
2023-03-23T09:38:43.000Z,4573
2023-03-23T09:39:59.525Z,4577
2023-03-23T09:41:14.000Z,4716
2023-03-23T09:42:31.038Z,5040
2023-03-23T09:43:47.263Z,4958
2023-03-23T09:45:03.000Z,4894
2023-03-23T09:46:19.000Z,4827
2023-03-23T09:47:36.000Z,4614
2023-03-23T09:48:52.000Z,4338
2023-03-23T09:50:08.456Z,4142
2023-03-23T09:51:24.701Z,4085
2023-03-23T09:52:40.943Z,4117
2023-03-23T09:53:57.185Z,4338
2023-03-23T09:55:13.000Z,4487
2023-03-23T09:56:29.000Z,4529
2023-03-23T09:57:44.911Z,4603
2023-03-23T09:59:01.000Z,4520
2023-03-23T10:00:17.387Z,4427
2023-03-23T10:01:33.000Z,4163
2023-03-23T10:02:49.000Z,3869
2023-03-23T10:04:06.120Z,3792
2023-03-23T10:05:22.359Z,3907
2023-03-23T10:06:38.000Z,3938
2023-03-23T10:07:54.835Z,3646
2023-03-23T10:09:11.000Z,3381
2023-03-23T10:10:27.000Z,3383
2023-03-23T10:11:43.000Z,3486
2023-03-23T10:12:59.773Z,3389
2023-03-23T10:14:15.000Z,3274
2023-03-23T10:15:31.274Z,3338
2023-03-23T10:16:47.517Z,3312
2023-03-23T10:18:03.751Z,3215
2023-03-23T10:19:20.000Z,3159
2023-03-23T10:20:36.230Z,3191
2023-03-23T10:21:52.000Z,3213
2023-03-23T10:23:08.709Z,3208
2023-03-23T10:24:24.951Z,3257
2023-03-23T10:25:41.000Z,3381
2023-03-23T10:26:57.439Z,3575
2023-03-23T10:28:13.659Z,3723
2023-03-23T10:29:29.917Z,3786
2023-03-23T10:30:45.169Z,3755
2023-03-23T10:32:01.000Z,3705
2023-03-23T10:33:17.000Z,3668
2023-03-23T10:34:33.000Z,3629
2023-03-23T10:35:50.120Z,3699
2023-03-23T10:37:06.000Z,3859
2023-03-23T10:38:22.590Z,3995
2023-03-23T10:39:38.847Z,4171
2023-03-23T10:40:55.070Z,4277
2023-03-23T10:42:11.000Z,4385
2023-03-23T10:43:27.000Z,4483
2023-03-23T10:44:43.000Z,4484
2023-03-23T10:46:00.000Z,4481
2023-03-23T10:47:15.000Z,4539
2023-03-23T10:48:31.000Z,4427
2023-03-23T10:49:47.000Z,4202
2023-03-23T10:51:04.010Z,3922
2023-03-23T10:52:20.251Z,3702
2023-03-23T10:53:36.477Z,3539
2023-03-23T10:54:51.734Z,3405
2023-03-23T10:56:08.000Z,3394
2023-03-23T10:57:24.000Z,3497
2023-03-23T10:58:40.464Z,3625
2023-03-23T10:59:56.695Z,3737
2023-03-23T11:01:12.937Z,3708
2023-03-23T11:02:29.000Z,3764
2023-03-23T11:03:45.418Z,3762
2023-03-23T11:05:01.657Z,3582
2023-03-23T11:06:17.911Z,3461
2023-03-23T11:07:34.000Z,3534
2023-03-23T11:08:50.376Z,3634
2023-03-23T11:10:06.000Z,3740
2023-03-23T11:11:21.886Z,3799
2023-03-23T11:12:38.116Z,3785
2023-03-23T11:13:54.339Z,3718
2023-03-23T11:15:10.586Z,3828
2023-03-23T11:16:26.829Z,4060
2023-03-23T11:17:43.084Z,4110
2023-03-23T11:18:59.309Z,4074
2023-03-23T11:20:15.556Z,4162
2023-03-23T11:21:31.000Z,4435
2023-03-23T11:22:48.027Z,4659
2023-03-23T11:24:04.267Z,4828
2023-03-23T11:25:20.000Z,5048
2023-03-23T11:26:36.739Z,5062
2023-03-23T11:27:52.000Z,4736
2023-03-23T11:29:08.239Z,4321
2023-03-23T11:30:24.480Z,3981
2023-03-23T11:31:40.714Z,3996
2023-03-23T11:32:56.000Z,4177
2023-03-23T11:34:13.000Z,4034
2023-03-23T11:35:29.000Z,3899
2023-03-23T11:36:45.688Z,4125
2023-03-23T11:38:01.000Z,4085
2023-03-23T11:39:18.151Z,3871
2023-03-23T11:40:34.393Z,3499
2023-03-23T11:41:50.627Z,3089
2023-03-23T11:43:06.000Z,3103
2023-03-23T11:44:22.140Z,3082
2023-03-23T11:45:38.000Z,2928
2023-03-23T11:46:54.594Z,2656
2023-03-23T11:48:10.000Z,2802
2023-03-23T11:49:27.000Z,2930
2023-03-23T11:50:43.337Z,2967
2023-03-23T11:51:59.578Z,3102
2023-03-23T11:53:15.000Z,3286
2023-03-23T11:54:32.036Z,3693
2023-03-23T11:55:48.000Z,4135
2023-03-23T11:57:04.000Z,3827
2023-03-23T11:58:20.000Z,3466
2023-03-23T11:59:36.986Z,3241
2023-03-23T12:00:52.000Z,3333
2023-03-23T12:02:08.495Z,3459
2023-03-23T12:03:24.729Z,3726
2023-03-23T12:04:40.000Z,4163
2023-03-23T12:05:57.000Z,4104
2023-03-23T12:07:13.000Z,4141
2023-03-23T12:08:29.000Z,3982
2023-03-23T12:09:45.929Z,3921
2023-03-23T12:11:02.000Z,3747
2023-03-23T12:12:18.398Z,3934
2023-03-23T12:13:34.648Z,4024
2023-03-23T12:14:50.883Z,3892
2023-03-23T12:16:07.000Z,4143
2023-03-23T12:17:22.378Z,4452
2023-03-23T12:18:38.000Z,4465
2023-03-23T12:19:54.000Z,4176
2023-03-23T12:21:11.000Z,4058
2023-03-23T12:22:27.000Z,4040
2023-03-23T12:23:43.000Z,4511
2023-03-23T12:24:59.816Z,5003
2023-03-23T12:26:16.056Z,4879
2023-03-23T12:27:32.000Z,4507
2023-03-23T12:28:48.000Z,4279
2023-03-23T12:30:04.000Z,4496
2023-03-23T12:31:21.000Z,4665
2023-03-23T12:32:37.000Z,5125
2023-03-23T12:33:52.000Z,5328
2023-03-23T12:35:08.000Z,5376
2023-03-23T12:36:24.989Z,5530
2023-03-23T12:37:41.236Z,5695
2023-03-23T12:38:57.000Z,6405
2023-03-23T12:40:13.721Z,6635
2023-03-23T12:41:29.000Z,6568
2023-03-23T12:42:46.000Z,6472
2023-03-23T12:44:02.000Z,5960
2023-03-23T12:45:18.666Z,6351
2023-03-23T12:46:34.899Z,6186
2023-03-23T12:47:51.151Z,6537
2023-03-23T12:49:07.000Z,6377
2023-03-23T12:50:23.000Z,6952
2023-03-23T12:51:39.977Z,6427
2023-03-23T12:52:56.000Z,5757
2023-03-23T12:54:12.000Z,5921
2023-03-23T12:55:28.685Z,6201
2023-03-23T12:56:44.928Z,6099
2023-03-23T12:58:01.172Z,5596
2023-03-23T12:59:17.422Z,6692
2023-03-23T13:00:33.000Z,6079
2023-03-23T13:01:49.000Z,5822
2023-03-23T13:03:06.130Z,6270
2023-03-23T13:04:22.000Z,5894
2023-03-23T13:05:38.000Z,5844
2023-03-23T13:06:53.000Z,6482
2023-03-23T13:08:10.115Z,5527
2023-03-23T13:09:26.340Z,5458
2023-03-23T13:10:42.585Z,4412
2023-03-23T13:11:58.817Z,3883
2023-03-23T13:13:15.076Z,4026
2023-03-23T13:14:31.000Z,3066
2023-03-23T13:15:47.000Z,2695
2023-03-23T13:17:03.000Z,2229
2023-03-23T13:18:20.030Z,2075
2023-03-23T13:19:36.275Z,1970
2023-03-23T13:20:52.504Z,1616
2023-03-23T13:22:08.000Z,1394
2023-03-23T13:23:23.992Z,1771
2023-03-23T13:24:40.000Z,1672
2023-03-23T13:25:56.488Z,1856
2023-03-23T13:27:12.000Z,1417
2023-03-23T13:28:28.000Z,1225
2023-03-23T13:29:45.000Z,1392
2023-03-23T13:31:01.448Z,1159
2023-03-23T13:32:17.689Z,1528
2023-03-23T13:33:33.904Z,1388
2023-03-23T13:34:50.000Z,1316
2023-03-23T13:36:06.388Z,1372
2023-03-23T13:37:22.000Z,1408
2023-03-23T13:38:38.862Z,1442
2023-03-23T13:39:54.000Z,1384
2023-03-23T13:41:10.365Z,1112
2023-03-23T13:42:26.605Z,981
2023-03-23T13:43:42.840Z,960
2023-03-23T13:44:59.000Z,865
2023-03-23T13:46:15.000Z,831
2023-03-23T13:47:31.000Z,800
2023-03-23T13:48:47.790Z,777
2023-03-23T13:50:04.000Z,880
2023-03-23T13:51:20.000Z,1001
2023-03-23T13:52:36.000Z,968
2023-03-23T13:53:52.771Z,891
2023-03-23T13:55:08.997Z,794
2023-03-23T13:56:24.260Z,709
2023-03-23T13:57:40.000Z,717
2023-03-23T13:58:56.000Z,801
2023-03-23T14:00:12.000Z,819
2023-03-23T14:01:29.000Z,839
2023-03-23T14:02:45.000Z,976
2023-03-23T14:04:01.688Z,1170
2023-03-23T14:05:17.930Z,1227
2023-03-23T14:06:34.152Z,1353
2023-03-23T14:07:50.000Z,1738
2023-03-23T14:09:06.000Z,1679
2023-03-23T14:10:22.000Z,1511
2023-03-23T14:11:39.103Z,1405
2023-03-23T14:12:54.000Z,1235
2023-03-23T14:14:10.605Z,1100
2023-03-23T14:15:26.000Z,886
2023-03-23T14:16:43.102Z,727
2023-03-23T14:17:59.333Z,699
2023-03-23T14:19:15.000Z,905
2023-03-23T14:20:31.000Z,1193
2023-03-23T14:21:48.042Z,1285
2023-03-23T14:23:04.000Z,1295
2023-03-23T14:24:20.000Z,1142
2023-03-23T14:25:36.000Z,1410
2023-03-23T14:26:53.013Z,1389
2023-03-23T14:28:09.000Z,1430
2023-03-23T14:29:24.484Z,1269
2023-03-23T14:30:40.000Z,1109
2023-03-23T14:31:57.000Z,1119
2023-03-23T14:33:13.000Z,1354
2023-03-23T14:34:29.000Z,1092
2023-03-23T14:35:45.000Z,1015
2023-03-23T14:37:01.000Z,1215
2023-03-23T14:38:18.000Z,1444
2023-03-23T14:39:34.000Z,1523
2023-03-23T14:40:50.000Z,1569
2023-03-23T14:42:06.878Z,1729
2023-03-23T14:43:23.000Z,1718
2023-03-23T14:44:39.000Z,1925
2023-03-23T14:45:54.643Z,1798
2023-03-23T14:47:10.000Z,2030
2023-03-23T14:48:27.000Z,2060
2023-03-23T14:49:43.000Z,2178
2023-03-23T14:50:59.000Z,2119
2023-03-23T14:52:15.820Z,1958
2023-03-23T14:53:32.061Z,1844
2023-03-23T14:54:48.000Z,1575
2023-03-23T14:56:04.000Z,1350
2023-03-23T14:57:20.768Z,1353
2023-03-23T14:58:37.000Z,1322
2023-03-23T14:59:53.000Z,1220
2023-03-23T15:01:09.000Z,1275
2023-03-23T15:02:24.000Z,1116
2023-03-23T15:03:40.971Z,1415
2023-03-23T15:04:57.211Z,1422
2023-03-23T15:06:13.000Z,1224
2023-03-23T15:07:29.000Z,1200
2023-03-23T15:08:45.000Z,1232
2023-03-23T15:10:01.000Z,1067
2023-03-23T15:11:17.000Z,1203
2023-03-23T15:12:33.665Z,1465
2023-03-23T15:13:49.000Z,1197
2023-03-23T15:15:06.150Z,1225
2023-03-23T15:16:22.392Z,1345
2023-03-23T15:17:38.000Z,1098
2023-03-23T15:18:54.000Z,976
2023-03-23T15:20:11.000Z,896
2023-03-23T15:21:27.000Z,881
2023-03-23T15:22:43.000Z,796
2023-03-23T15:23:59.000Z,716
2023-03-23T15:25:16.075Z,715
2023-03-23T15:26:31.303Z,728
2023-03-23T15:27:47.561Z,694
2023-03-23T15:29:03.000Z,640
2023-03-23T15:30:20.025Z,547
2023-03-23T15:31:36.000Z,527
2023-03-23T15:32:52.000Z,526
2023-03-23T15:34:08.000Z,549
2023-03-23T15:35:25.000Z,575
2023-03-23T15:36:41.000Z,586
2023-03-23T15:37:57.000Z,692
2023-03-23T15:39:13.730Z,779
2023-03-23T15:40:29.962Z,807
2023-03-23T15:41:46.000Z,676
2023-03-23T15:43:01.436Z,606
2023-03-23T15:44:17.000Z,580
2023-03-23T15:45:33.000Z,514
2023-03-23T15:46:50.000Z,431
2023-03-23T15:48:06.409Z,422
2023-03-23T15:49:22.000Z,423
2023-03-23T15:50:38.901Z,530
2023-03-23T15:51:55.131Z,513
2023-03-23T15:53:11.000Z,494
2023-03-23T15:54:27.000Z,486
2023-03-23T15:55:43.000Z,503
2023-03-23T15:57:00.061Z,497
2023-03-23T15:58:16.000Z,449
2023-03-23T15:59:31.000Z,413
2023-03-23T16:00:47.000Z,409
2023-03-23T16:02:04.060Z,564
2023-03-23T16:03:20.297Z,943
2023-03-23T16:04:36.000Z,1186
2023-03-23T16:05:52.745Z,1143
2023-03-23T16:07:08.992Z,1162
2023-03-23T16:08:25.000Z,1039
2023-03-23T16:09:41.000Z,1041
2023-03-23T16:10:57.721Z,1097
2023-03-23T16:12:13.940Z,1188
2023-03-23T16:13:30.195Z,1442
2023-03-23T16:14:46.418Z,1248
2023-03-23T16:17:17.000Z,1213
2023-03-23T16:18:34.163Z,1868
2023-03-23T16:19:50.000Z,2192
2023-03-23T16:21:06.650Z,2485
2023-03-23T16:22:22.000Z,2832
2023-03-23T16:23:39.128Z,2458
2023-03-23T16:24:55.000Z,2156
2023-03-23T16:26:11.000Z,2074
2023-03-23T16:27:27.000Z,2013
2023-03-23T16:28:44.085Z,2092
2023-03-23T16:30:00.329Z,1883
2023-03-23T16:31:16.000Z,2205
2023-03-23T16:33:48.000Z,2263
2023-03-23T16:35:04.309Z,2193
2023-03-23T16:36:20.537Z,2156
2023-03-23T16:37:36.000Z,2119
2023-03-23T16:38:53.000Z,2027
2023-03-23T16:40:09.260Z,1959
2023-03-23T16:41:25.505Z,1855
2023-03-23T16:42:41.000Z,1735
2023-03-23T16:43:57.970Z,1658
2023-03-23T16:45:14.000Z,1599
2023-03-23T16:46:30.000Z,1515
2023-03-23T16:47:46.000Z,1394
2023-03-23T16:49:01.000Z,1278
2023-03-23T16:50:18.164Z,1238
2023-03-23T16:51:34.433Z,1108
2023-03-23T16:52:50.669Z,972
2023-03-23T16:54:06.000Z,806
2023-03-23T16:55:23.000Z,701
2023-03-23T16:56:39.000Z,660
2023-03-23T16:57:55.000Z,608
2023-03-23T16:59:11.000Z,547
2023-03-23T17:00:28.000Z,688
2023-03-23T17:01:44.353Z,707
2023-03-23T17:03:00.000Z,562
2023-03-23T17:04:16.000Z,479
2023-03-23T17:05:32.076Z,464
2023-03-23T17:06:48.308Z,448
2023-03-23T17:08:04.561Z,357
2023-03-23T17:09:20.775Z,262
2023-03-23T17:10:37.000Z,222
2023-03-23T17:11:53.250Z,220
2023-03-23T17:13:09.501Z,209
2023-03-23T17:14:25.750Z,173
2023-03-23T17:15:41.000Z,144
2023-03-23T17:16:58.224Z,113
2023-03-23T17:18:14.000Z,97
2023-03-23T17:19:30.697Z,98
2023-03-23T17:20:46.000Z,95
2023-03-23T17:22:02.193Z,104
2023-03-23T17:23:18.000Z,121
2023-03-23T17:24:34.690Z,136
2023-03-23T17:25:50.912Z,164
2023-03-23T17:27:07.156Z,171
2023-03-23T17:28:23.000Z,165
2023-03-23T17:29:39.629Z,142
2023-03-23T17:30:55.000Z,124
2023-03-23T17:32:12.000Z,110
2023-03-23T17:33:28.361Z,96
2023-03-23T17:34:44.589Z,81
2023-03-23T17:36:00.822Z,69